Airfield :
LOGIN :

Register | Disclaimer

   EN    FR    IT 

 










Legend :    VFR   Marginal VFR   IFR   Intensive IFR   Very Intensive IFR
Visi :
Ceiling :
>= 8 km
>= 3000ft
5 to 8 km
1000 to 3000 ft
1500m to 5 km
500 to 1000 ft
800 to 1500m
200 to 500 ft
< 800m
< 200 ft
Symbols :   Thunderstorms  Fog  Heavy snow  Heavy precipitations  Wind > 20 kt
SIGMETs :     Misc.  Thunderstorms  Icing  Turbulence  Mountain Waves  Volcanic Ashes







- Airport Elevation : 23 ft
- IATA code : XFW


EDHI - Hamburg Finkenwerder

CURRENT METAR :
  • 130650Z 05007KT 9999 FEW006 BKN011 02/00 Q1026

EXPIRED METARs :
  • 130620Z 04005KT 9999 FEW009 BKN012 02/M00 Q1025
  • 130550Z 06005KT 040V110 9999 SCT014 BKN029 01/M00 Q1026
  • 130520Z 03006KT 9999 BKN025 02/M00 Q1026
  • 130450Z AUTO 05006KT 030V090 9999 // OVC023/// 02/00 Q1026
  • 130420Z AUTO 07008KT 040V100 9999 // OVC024/// 03/M00 Q1026

TAF TAF EDHI
Valid from the 13 at 06:00 until the 13 at 15:00 UTC


130529Z 1306/1315 04007KT 9999 BKN020
TEMPO 1306/1310 BKN006
TEMPO 1310/1312 BKN012
No reported NOTAMs for that airfield.



MET'MAP, your aeronautical weather chart ! - Copyright ORBIFLY December 2007 - Disclaimer

ORBIFLY MET'MAP TEAM :

Programming & Development : Alexandra Zaïnal
Concept & Development : Baudouin d'Aumeries
Co-Development & Prog : Marc-Olivier Méhu
Technical & hardware support : Manuel Goepfert

Contact : metmap@orbifly.com




SOURCES & CREDITS :

   NOAA